Terminal Aerodrome Forecast
Issued by NWS

Home | Current Version | Previous Version | Text Only | Print | Product List | Glossary On
Versions: 1 2 3 4 5 6 7 8 9 10 11 12 13 14 15 16 17 18 19 20 21
000
FTUS46 KPDT 230000 AAA
TAFBDN
TAF AMD
KBDN 230006Z 2300/2324 30012KT P6SM BKN100
     FM231000 20011KT P6SM BKN040
     FM232100 24010KT P6SM BKN040=

USA.gov is the U.S. government's official web portal to all federal, state and local government web resources and services.